sensor_id;sensor_type;location;lat;lon;timestamp;temperature;humidity
39675;DHT22;27790;50.840;4.386;2022-07-29T00:00:35;20.80;64.60
39675;DHT22;27790;50.840;4.386;2022-07-29T00:03:02;20.80;64.50
39675;DHT22;27790;50.840;4.386;2022-07-29T00:05:27;20.80;64.50
39675;DHT22;27790;50.840;4.386;2022-07-29T00:07:53;20.70;64.50
39675;DHT22;27790;50.840;4.386;2022-07-29T00:10:19;20.70;64.40
39675;DHT22;27790;50.840;4.386;2022-07-29T00:12:44;20.80;64.40
39675;DHT22;27790;50.840;4.386;2022-07-29T00:15:10;20.70;64.60
39675;DHT22;27790;50.840;4.386;2022-07-29T00:17:35;20.70;64.50
39675;DHT22;27790;50.840;4.386;2022-07-29T00:20:01;20.60;64.70
39675;DHT22;27790;50.840;4.386;2022-07-29T00:22:27;20.60;64.80
39675;DHT22;27790;50.840;4.386;2022-07-29T00:24:52;20.60;64.60
39675;DHT22;27790;50.840;4.386;2022-07-29T00:27:18;20.60;64.90
39675;DHT22;27790;50.840;4.386;2022-07-29T00:29:44;20.40;65.10
39675;DHT22;27790;50.840;4.386;2022-07-29T00:32:09;20.40;65.20
39675;DHT22;27790;50.840;4.386;2022-07-29T00:34:35;20.30;65.60
39675;DHT22;27790;50.840;4.386;2022-07-29T00:37:11;20.30;65.60
39675;DHT22;27790;50.840;4.386;2022-07-29T00:39:37;20.30;65.70
39675;DHT22;27790;50.840;4.386;2022-07-29T00:42:04;20.30;65.60
39675;DHT22;27790;50.840;4.386;2022-07-29T00:44:32;20.30;65.60
39675;DHT22;27790;50.840;4.386;2022-07-29T00:47:01;20.30;65.60
39675;DHT22;27790;50.840;4.386;2022-07-29T00:49:26;20.20;65.70
39675;DHT22;27790;50.840;4.386;2022-07-29T00:51:52;20.20;65.90
39675;DHT22;27790;50.840;4.386;2022-07-29T00:54:18;20.10;66.10
39675;DHT22;27790;50.840;4.386;2022-07-29T00:56:43;20.00;66.60
39675;DHT22;27790;50.840;4.386;2022-07-29T00:59:09;19.90;66.90
39675;DHT22;27790;50.840;4.386;2022-07-29T01:01:34;19.90;67.00
39675;DHT22;27790;50.840;4.386;2022-07-29T01:04:00;19.90;67.00
39675;DHT22;27790;50.840;4.386;2022-07-29T01:06:26;19.90;66.90
39675;DHT22;27790;50.840;4.386;2022-07-29T01:08:52;19.90;67.10
39675;DHT22;27790;50.840;4.386;2022-07-29T01:11:18;20.00;67.20
39675;DHT22;27790;50.840;4.386;2022-07-29T01:13:46;20.00;67.00
39675;DHT22;27790;50.840;4.386;2022-07-29T01:16:28;19.90;67.00
39675;DHT22;27790;50.840;4.386;2022-07-29T01:19:06;19.80;67.30
39675;DHT22;27790;50.840;4.386;2022-07-29T01:21:49;19.80;67.30
39675;DHT22;27790;50.840;4.386;2022-07-29T01:29:52;19.70;67.70
39675;DHT22;27790;50.840;4.386;2022-07-29T01:32:23;19.70;67.70
39675;DHT22;27790;50.840;4.386;2022-07-29T01:34:58;19.60;68.00
39675;DHT22;27790;50.840;4.386;2022-07-29T01:40:20;19.60;68.10
39675;DHT22;27790;50.840;4.386;2022-07-29T01:42:55;19.60;68.30
39675;DHT22;27790;50.840;4.386;2022-07-29T01:45:38;19.60;68.20
39675;DHT22;27790;50.840;4.386;2022-07-29T01:48:12;19.60;68.10
39675;DHT22;27790;50.840;4.386;2022-07-29T01:50:50;19.60;68.20
39675;DHT22;27790;50.840;4.386;2022-07-29T01:53:25;19.50;68.20
39675;DHT22;27790;50.840;4.386;2022-07-29T01:55:52;19.50;68.50
39675;DHT22;27790;50.840;4.386;2022-07-29T01:58:21;19.40;68.70
39675;DHT22;27790;50.840;4.386;2022-07-29T02:00:49;19.40;69.00
39675;DHT22;27790;50.840;4.386;2022-07-29T02:03:17;19.30;69.00
39675;DHT22;27790;50.840;4.386;2022-07-29T02:05:45;19.30;69.20
39675;DHT22;27790;50.840;4.386;2022-07-29T02:08:13;19.20;69.40
39675;DHT22;27790;50.840;4.386;2022-07-29T02:10:40;19.20;69.70
39675;DHT22;27790;50.840;4.386;2022-07-29T02:13:07;19.20;69.60
39675;DHT22;27790;50.840;4.386;2022-07-29T02:15:35;19.20;69.80
39675;DHT22;27790;50.840;4.386;2022-07-29T02:18:11;19.10;69.70
39675;DHT22;27790;50.840;4.386;2022-07-29T02:20:39;19.10;69.80
39675;DHT22;27790;50.840;4.386;2022-07-29T02:23:06;19.10;70.10
39675;DHT22;27790;50.840;4.386;2022-07-29T02:25:34;19.00;70.10
39675;DHT22;27790;50.840;4.386;2022-07-29T02:28:00;19.00;70.20
39675;DHT22;27790;50.840;4.386;2022-07-29T02:30:27;19.00;70.30
39675;DHT22;27790;50.840;4.386;2022-07-29T02:32:55;19.00;70.50
39675;DHT22;27790;50.840;4.386;2022-07-29T02:35:21;19.00;70.50
39675;DHT22;27790;50.840;4.386;2022-07-29T02:37:47;18.90;70.60
39675;DHT22;27790;50.840;4.386;2022-07-29T02:40:35;18.90;70.70
39675;DHT22;27790;50.840;4.386;2022-07-29T02:43:05;18.90;70.70
39675;DHT22;27790;50.840;4.386;2022-07-29T02:45:32;18.90;70.70
39675;DHT22;27790;50.840;4.386;2022-07-29T02:47:59;18.90;70.80
39675;DHT22;27790;50.840;4.386;2022-07-29T02:50:33;18.80;71.00
39675;DHT22;27790;50.840;4.386;2022-07-29T02:53:08;18.80;71.00
39675;DHT22;27790;50.840;4.386;2022-07-29T02:58:30;18.70;71.10
39675;DHT22;27790;50.840;4.386;2022-07-29T03:00:58;18.70;71.20
39675;DHT22;27790;50.840;4.386;2022-07-29T03:03:29;18.70;71.30
39675;DHT22;27790;50.840;4.386;2022-07-29T03:05:57;18.70;71.40
39675;DHT22;27790;50.840;4.386;2022-07-29T03:08:25;18.70;71.50
39675;DHT22;27790;50.840;4.386;2022-07-29T03:10:52;18.70;71.40
39675;DHT22;27790;50.840;4.386;2022-07-29T03:13:19;18.70;71.60
39675;DHT22;27790;50.840;4.386;2022-07-29T03:15:46;18.70;71.60
39675;DHT22;27790;50.840;4.386;2022-07-29T03:18:13;18.60;71.50
39675;DHT22;27790;50.840;4.386;2022-07-29T03:20:39;18.60;71.70
39675;DHT22;27790;50.840;4.386;2022-07-29T03:23:05;18.60;71.70
39675;DHT22;27790;50.840;4.386;2022-07-29T03:25:31;18.60;71.80
39675;DHT22;27790;50.840;4.386;2022-07-29T03:27:57;18.60;71.80
39675;DHT22;27790;50.840;4.386;2022-07-29T03:30:23;18.50;71.90
39675;DHT22;27790;50.840;4.386;2022-07-29T03:32:49;18.50;72.00
39675;DHT22;27790;50.840;4.386;2022-07-29T03:35:15;18.50;72.30
39675;DHT22;27790;50.840;4.386;2022-07-29T03:37:48;18.50;72.20
39675;DHT22;27790;50.840;4.386;2022-07-29T03:40:18;18.50;72.50
39675;DHT22;27790;50.840;4.386;2022-07-29T03:42:45;18.50;72.60
39675;DHT22;27790;50.840;4.386;2022-07-29T03:45:16;18.40;72.60
39675;DHT22;27790;50.840;4.386;2022-07-29T03:47:47;18.50;72.80
39675;DHT22;27790;50.840;4.386;2022-07-29T03:50:15;18.40;73.00
39675;DHT22;27790;50.840;4.386;2022-07-29T03:52:41;18.50;72.80
39675;DHT22;27790;50.840;4.386;2022-07-29T03:55:08;18.40;72.80
39675;DHT22;27790;50.840;4.386;2022-07-29T03:57:35;18.40;73.00
39675;DHT22;27790;50.840;4.386;2022-07-29T04:00:02;18.50;73.20
39675;DHT22;27790;50.840;4.386;2022-07-29T04:02:29;18.40;73.00
39675;DHT22;27790;50.840;4.386;2022-07-29T04:04:55;18.50;73.40
39675;DHT22;27790;50.840;4.386;2022-07-29T04:07:20;18.40;73.10
39675;DHT22;27790;50.840;4.386;2022-07-29T04:09:46;18.40;73.40
39675;DHT22;27790;50.840;4.386;2022-07-29T04:12:11;18.40;73.30
39675;DHT22;27790;50.840;4.386;2022-07-29T04:14:37;18.50;73.30
39675;DHT22;27790;50.840;4.386;2022-07-29T04:17:03;18.40;73.40
39675;DHT22;27790;50.840;4.386;2022-07-29T04:19:29;18.40;73.60
39675;DHT22;27790;50.840;4.386;2022-07-29T04:21:56;18.30;73.70
39675;DHT22;27790;50.840;4.386;2022-07-29T04:24:22;18.30;73.90
39675;DHT22;27790;50.840;4.386;2022-07-29T04:26:48;18.30;74.10
39675;DHT22;27790;50.840;4.386;2022-07-29T04:29:14;18.20;74.40
39675;DHT22;27790;50.840;4.386;2022-07-29T04:31:40;18.20;74.50
39675;DHT22;27790;50.840;4.386;2022-07-29T04:34:06;18.20;74.70
39675;DHT22;27790;50.840;4.386;2022-07-29T04:36:32;18.20;74.70
39675;DHT22;27790;50.840;4.386;2022-07-29T04:38:57;18.20;74.70
39675;DHT22;27790;50.840;4.386;2022-07-29T04:41:23;18.30;74.70
39675;DHT22;27790;50.840;4.386;2022-07-29T04:43:49;18.30;74.70
39675;DHT22;27790;50.840;4.386;2022-07-29T04:46:15;18.30;74.80
39675;DHT22;27790;50.840;4.386;2022-07-29T04:48:40;18.30;74.70
39675;DHT22;27790;50.840;4.386;2022-07-29T04:51:06;18.30;74.60
39675;DHT22;27790;50.840;4.386;2022-07-29T04:53:32;18.50;74.30
39675;DHT22;27790;50.840;4.386;2022-07-29T04:55:58;19.00;73.20
39675;DHT22;27790;50.840;4.386;2022-07-29T04:58:24;19.40;71.50
39675;DHT22;27790;50.840;4.386;2022-07-29T05:00:50;19.80;70.20
39675;DHT22;27790;50.840;4.386;2022-07-29T05:03:16;20.20;69.10
39675;DHT22;27790;50.840;4.386;2022-07-29T05:05:41;20.60;68.20
39675;DHT22;27790;50.840;4.386;2022-07-29T05:08:07;21.10;66.90
39675;DHT22;27790;50.840;4.386;2022-07-29T05:10:34;21.50;65.90
39675;DHT22;27790;50.840;4.386;2022-07-29T05:13:04;21.90;64.70
39675;DHT22;27790;50.840;4.386;2022-07-29T05:15:29;22.30;63.40
39675;DHT22;27790;50.840;4.386;2022-07-29T05:17:55;22.60;62.40
39675;DHT22;27790;50.840;4.386;2022-07-29T05:20:20;22.70;62.20
39675;DHT22;27790;50.840;4.386;2022-07-29T05:22:51;23.00;61.50
39675;DHT22;27790;50.840;4.386;2022-07-29T05:25:16;23.10;60.70
39675;DHT22;27790;50.840;4.386;2022-07-29T05:27:42;23.20;60.80
39675;DHT22;27790;50.840;4.386;2022-07-29T05:30:08;23.00;61.20
39675;DHT22;27790;50.840;4.386;2022-07-29T05:32:34;22.70;62.40
39675;DHT22;27790;50.840;4.386;2022-07-29T05:34:59;22.30;62.90
39675;DHT22;27790;50.840;4.386;2022-07-29T05:37:25;21.90;63.50
39675;DHT22;27790;50.840;4.386;2022-07-29T05:39:50;21.60;64.40
39675;DHT22;27790;50.840;4.386;2022-07-29T05:42:16;21.20;65.40
39675;DHT22;27790;50.840;4.386;2022-07-29T05:44:42;21.00;66.30
39675;DHT22;27790;50.840;4.386;2022-07-29T05:47:07;20.70;67.00
39675;DHT22;27790;50.840;4.386;2022-07-29T05:49:33;20.50;67.90
39675;DHT22;27790;50.840;4.386;2022-07-29T05:51:58;20.30;68.40
39675;DHT22;27790;50.840;4.386;2022-07-29T05:54:24;20.20;68.90
39675;DHT22;27790;50.840;4.386;2022-07-29T05:56:51;20.10;69.20
39675;DHT22;27790;50.840;4.386;2022-07-29T05:59:16;20.20;69.80
39675;DHT22;27790;50.840;4.386;2022-07-29T06:01:45;20.30;69.10
39675;DHT22;27790;50.840;4.386;2022-07-29T06:04:10;20.40;68.70
39675;DHT22;27790;50.840;4.386;2022-07-29T06:06:36;20.40;68.90
39675;DHT22;27790;50.840;4.386;2022-07-29T06:09:02;20.50;68.40
39675;DHT22;27790;50.840;4.386;2022-07-29T06:11:28;20.60;68.40
39675;DHT22;27790;50.840;4.386;2022-07-29T06:13:54;20.70;68.80
39675;DHT22;27790;50.840;4.386;2022-07-29T06:16:19;20.70;68.20
39675;DHT22;27790;50.840;4.386;2022-07-29T06:18:45;20.60;68.50
39675;DHT22;27790;50.840;4.386;2022-07-29T06:21:11;20.60;68.60
39675;DHT22;27790;50.840;4.386;2022-07-29T06:23:38;20.60;69.30
39675;DHT22;27790;50.840;4.386;2022-07-29T06:26:04;20.60;68.80
39675;DHT22;27790;50.840;4.386;2022-07-29T06:28:30;20.70;68.80
39675;DHT22;27790;50.840;4.386;2022-07-29T06:30:55;20.90;68.40
39675;DHT22;27790;50.840;4.386;2022-07-29T06:33:21;21.00;67.90
39675;DHT22;27790;50.840;4.386;2022-07-29T06:35:47;21.10;67.50
39675;DHT22;27790;50.840;4.386;2022-07-29T06:38:13;21.20;67.80
39675;DHT22;27790;50.840;4.386;2022-07-29T06:40:45;21.20;68.40
39675;DHT22;27790;50.840;4.386;2022-07-29T06:43:21;21.20;67.80
39675;DHT22;27790;50.840;4.386;2022-07-29T06:45:46;21.30;68.00
39675;DHT22;27790;50.840;4.386;2022-07-29T06:48:12;21.40;68.20
39675;DHT22;27790;50.840;4.386;2022-07-29T06:50:37;21.50;67.70
39675;DHT22;27790;50.840;4.386;2022-07-29T06:53:03;21.60;66.90
39675;DHT22;27790;50.840;4.386;2022-07-29T06:55:29;21.90;66.80
39675;DHT22;27790;50.840;4.386;2022-07-29T06:57:55;22.40;65.40
39675;DHT22;27790;50.840;4.386;2022-07-29T07:00:20;23.00;63.80
39675;DHT22;27790;50.840;4.386;2022-07-29T07:02:46;23.60;62.50
39675;DHT22;27790;50.840;4.386;2022-07-29T07:05:11;23.90;61.30
39675;DHT22;27790;50.840;4.386;2022-07-29T07:07:37;24.10;60.80
39675;DHT22;27790;50.840;4.386;2022-07-29T07:10:03;24.20;60.80
39675;DHT22;27790;50.840;4.386;2022-07-29T07:12:28;24.00;60.90
39675;DHT22;27790;50.840;4.386;2022-07-29T07:14:54;24.00;61.00
39675;DHT22;27790;50.840;4.386;2022-07-29T07:17:19;24.00;60.60
39675;DHT22;27790;50.840;4.386;2022-07-29T07:19:45;23.90;60.60
39675;DHT22;27790;50.840;4.386;2022-07-29T07:22:10;23.70;61.10
39675;DHT22;27790;50.840;4.386;2022-07-29T07:24:36;23.70;61.70
39675;DHT22;27790;50.840;4.386;2022-07-29T07:27:02;23.90;61.20
39675;DHT22;27790;50.840;4.386;2022-07-29T07:29:28;24.10;60.60
39675;DHT22;27790;50.840;4.386;2022-07-29T07:31:53;24.00;60.30
39675;DHT22;27790;50.840;4.386;2022-07-29T07:34:20;23.90;60.70
39675;DHT22;27790;50.840;4.386;2022-07-29T07:36:45;23.70;61.10
39675;DHT22;27790;50.840;4.386;2022-07-29T07:39:11;23.70;62.50
39675;DHT22;27790;50.840;4.386;2022-07-29T07:41:37;23.60;62.80
39675;DHT22;27790;50.840;4.386;2022-07-29T07:44:02;23.70;61.90
39675;DHT22;27790;50.840;4.386;2022-07-29T07:46:28;24.40;61.00
39675;DHT22;27790;50.840;4.386;2022-07-29T07:48:53;25.10;60.00
39675;DHT22;27790;50.840;4.386;2022-07-29T07:51:19;25.90;58.30
39675;DHT22;27790;50.840;4.386;2022-07-29T07:53:45;26.60;57.10
39675;DHT22;27790;50.840;4.386;2022-07-29T07:56:15;27.20;55.80
39675;DHT22;27790;50.840;4.386;2022-07-29T07:58:41;27.70;54.00
39675;DHT22;27790;50.840;4.386;2022-07-29T08:01:07;28.00;53.70
39675;DHT22;27790;50.840;4.386;2022-07-29T08:03:33;28.40;52.90
39675;DHT22;27790;50.840;4.386;2022-07-29T08:05:58;28.60;52.30
39675;DHT22;27790;50.840;4.386;2022-07-29T08:08:24;28.70;52.20
39675;DHT22;27790;50.840;4.386;2022-07-29T08:10:49;29.00;51.80
39675;DHT22;27790;50.840;4.386;2022-07-29T08:13:20;29.00;51.60
39675;DHT22;27790;50.840;4.386;2022-07-29T08:15:46;29.10;51.60
39675;DHT22;27790;50.840;4.386;2022-07-29T08:18:13;29.10;51.30
39675;DHT22;27790;50.840;4.386;2022-07-29T08:20:39;29.30;51.10
39675;DHT22;27790;50.840;4.386;2022-07-29T08:23:06;29.40;51.00
39675;DHT22;27790;50.840;4.386;2022-07-29T08:25:35;29.50;50.40
39675;DHT22;27790;50.840;4.386;2022-07-29T08:28:01;29.80;50.60
39675;DHT22;27790;50.840;4.386;2022-07-29T08:30:26;29.90;50.00
39675;DHT22;27790;50.840;4.386;2022-07-29T08:32:52;30.30;49.60
39675;DHT22;27790;50.840;4.386;2022-07-29T08:35:19;30.70;50.40
39675;DHT22;27790;50.840;4.386;2022-07-29T08:37:45;30.70;48.60
39675;DHT22;27790;50.840;4.386;2022-07-29T08:40:11;30.80;48.60
39675;DHT22;27790;50.840;4.386;2022-07-29T08:42:37;31.00;48.20
39675;DHT22;27790;50.840;4.386;2022-07-29T08:45:04;31.20;47.70
39675;DHT22;27790;50.840;4.386;2022-07-29T08:47:30;31.30;47.80
39675;DHT22;27790;50.840;4.386;2022-07-29T08:49:56;31.50;47.30
39675;DHT22;27790;50.840;4.386;2022-07-29T08:52:24;31.90;47.10
39675;DHT22;27790;50.840;4.386;2022-07-29T08:54:52;32.10;46.60
39675;DHT22;27790;50.840;4.386;2022-07-29T08:57:19;32.20;46.70
39675;DHT22;27790;50.840;4.386;2022-07-29T08:59:46;32.50;45.80
39675;DHT22;27790;50.840;4.386;2022-07-29T09:02:19;32.50;45.20
39675;DHT22;27790;50.840;4.386;2022-07-29T09:04:45;32.70;45.80
39675;DHT22;27790;50.840;4.386;2022-07-29T09:07:14;32.80;45.20
39675;DHT22;27790;50.840;4.386;2022-07-29T09:09:41;33.10;45.10
39675;DHT22;27790;50.840;4.386;2022-07-29T09:12:06;33.20;44.00
39675;DHT22;27790;50.840;4.386;2022-07-29T09:14:33;33.10;44.80
39675;DHT22;27790;50.840;4.386;2022-07-29T09:16:59;33.10;44.90
39675;DHT22;27790;50.840;4.386;2022-07-29T09:19:30;33.00;43.90
39675;DHT22;27790;50.840;4.386;2022-07-29T09:21:57;33.00;43.70
39675;DHT22;27790;50.840;4.386;2022-07-29T09:27:00;32.80;44.70
39675;DHT22;27790;50.840;4.386;2022-07-29T09:29:26;32.40;44.10
39675;DHT22;27790;50.840;4.386;2022-07-29T09:31:53;31.70;45.20
39675;DHT22;27790;50.840;4.386;2022-07-29T09:34:27;31.00;45.60
39675;DHT22;27790;50.840;4.386;2022-07-29T09:36:55;30.30;46.40
39675;DHT22;27790;50.840;4.386;2022-07-29T09:39:29;29.90;47.40
39675;DHT22;27790;50.840;4.386;2022-07-29T09:41:57;29.50;48.60
39675;DHT22;27790;50.840;4.386;2022-07-29T09:44:23;29.10;49.40
39675;DHT22;27790;50.840;4.386;2022-07-29T09:47:03;28.60;49.30
39675;DHT22;27790;50.840;4.386;2022-07-29T09:49:32;28.30;50.20
39675;DHT22;27790;50.840;4.386;2022-07-29T09:52:09;28.10;50.40
39675;DHT22;27790;50.840;4.386;2022-07-29T09:54:36;27.80;51.50
39675;DHT22;27790;50.840;4.386;2022-07-29T09:57:07;27.70;51.10
39675;DHT22;27790;50.840;4.386;2022-07-29T09:59:35;27.50;52.50
39675;DHT22;27790;50.840;4.386;2022-07-29T10:02:00;27.30;52.60
39675;DHT22;27790;50.840;4.386;2022-07-29T10:04:41;27.20;52.10
39675;DHT22;27790;50.840;4.386;2022-07-29T10:07:07;27.10;52.50
39675;DHT22;27790;50.840;4.386;2022-07-29T10:09:33;26.80;53.20
39675;DHT22;27790;50.840;4.386;2022-07-29T10:12:11;26.80;53.40
39675;DHT22;27790;50.840;4.386;2022-07-29T10:14:39;26.70;52.70
39675;DHT22;27790;50.840;4.386;2022-07-29T10:17:05;26.60;53.50
39675;DHT22;27790;50.840;4.386;2022-07-29T10:19:33;26.40;52.80
39675;DHT22;27790;50.840;4.386;2022-07-29T10:22:00;26.30;53.50
39675;DHT22;27790;50.840;4.386;2022-07-29T10:24:27;26.20;53.10
39675;DHT22;27790;50.840;4.386;2022-07-29T10:26:58;26.20;53.30
39675;DHT22;27790;50.840;4.386;2022-07-29T10:29:25;26.20;53.20
39675;DHT22;27790;50.840;4.386;2022-07-29T10:40:07;26.20;52.90
39675;DHT22;27790;50.840;4.386;2022-07-29T10:43:14;26.30;52.70
39675;DHT22;27790;50.840;4.386;2022-07-29T10:45:42;26.30;53.10
39675;DHT22;27790;50.840;4.386;2022-07-29T10:48:07;26.40;51.40
39675;DHT22;27790;50.840;4.386;2022-07-29T10:53:20;26.70;52.30
39675;DHT22;27790;50.840;4.386;2022-07-29T10:55:46;26.70;52.10
39675;DHT22;27790;50.840;4.386;2022-07-29T10:58:22;26.70;51.50
39675;DHT22;27790;50.840;4.386;2022-07-29T11:00:50;26.60;51.50
39675;DHT22;27790;50.840;4.386;2022-07-29T11:04:09;26.50;51.10
39675;DHT22;27790;50.840;4.386;2022-07-29T11:06:20;26.40;52.60
39675;DHT22;27790;50.840;4.386;2022-07-29T11:11:43;26.70;52.00
39675;DHT22;27790;50.840;4.386;2022-07-29T11:14:09;26.80;51.30
39675;DHT22;27790;50.840;4.386;2022-07-29T11:17:19;26.80;49.60
39675;DHT22;27790;50.840;4.386;2022-07-29T11:19:37;26.90;49.70
39675;DHT22;27790;50.840;4.386;2022-07-29T11:22:08;27.00;50.60
39675;DHT22;27790;50.840;4.386;2022-07-29T11:24:34;26.90;49.80
39675;DHT22;27790;50.840;4.386;2022-07-29T11:27:16;26.90;50.50
39675;DHT22;27790;50.840;4.386;2022-07-29T11:32:16;26.60;50.40
39675;DHT22;27790;50.840;4.386;2022-07-29T11:34:45;26.50;50.50
39675;DHT22;27790;50.840;4.386;2022-07-29T11:39:42;26.40;50.60
39675;DHT22;27790;50.840;4.386;2022-07-29T11:44:58;26.70;50.90
39675;DHT22;27790;50.840;4.386;2022-07-29T11:47:25;26.90;50.00
39675;DHT22;27790;50.840;4.386;2022-07-29T11:49:51;27.10;49.50
39675;DHT22;27790;50.840;4.386;2022-07-29T11:52:18;27.10;48.60
39675;DHT22;27790;50.840;4.386;2022-07-29T11:54:44;27.20;48.40
39675;DHT22;27790;50.840;4.386;2022-07-29T11:57:12;27.40;50.10
39675;DHT22;27790;50.840;4.386;2022-07-29T11:59:40;27.60;49.50
39675;DHT22;27790;50.840;4.386;2022-07-29T12:02:07;27.80;47.80
39675;DHT22;27790;50.840;4.386;2022-07-29T12:04:33;27.80;48.40
39675;DHT22;27790;50.840;4.386;2022-07-29T12:07:00;27.70;48.50
39675;DHT22;27790;50.840;4.386;2022-07-29T12:09:25;27.70;48.60
39675;DHT22;27790;50.840;4.386;2022-07-29T12:12:00;27.70;48.20
39675;DHT22;27790;50.840;4.386;2022-07-29T12:14:31;27.70;47.70
39675;DHT22;27790;50.840;4.386;2022-07-29T12:16:58;27.90;46.60
39675;DHT22;27790;50.840;4.386;2022-07-29T12:19:25;28.10;46.40
39675;DHT22;27790;50.840;4.386;2022-07-29T12:21:52;28.20;46.80
39675;DHT22;27790;50.840;4.386;2022-07-29T12:24:19;28.20;46.60
39675;DHT22;27790;50.840;4.386;2022-07-29T12:26:58;28.20;47.00
39675;DHT22;27790;50.840;4.386;2022-07-29T12:29:25;28.10;46.70
39675;DHT22;27790;50.840;4.386;2022-07-29T12:31:54;28.10;47.10
39675;DHT22;27790;50.840;4.386;2022-07-29T12:34:22;28.00;47.90
39675;DHT22;27790;50.840;4.386;2022-07-29T12:36:49;27.80;47.10
39675;DHT22;27790;50.840;4.386;2022-07-29T12:39:17;27.80;47.20
39675;DHT22;27790;50.840;4.386;2022-07-29T12:41:44;27.90;46.60
39675;DHT22;27790;50.840;4.386;2022-07-29T12:44:10;27.90;46.60
39675;DHT22;27790;50.840;4.386;2022-07-29T12:46:36;27.90;46.10
39675;DHT22;27790;50.840;4.386;2022-07-29T12:49:02;27.90;46.30
39675;DHT22;27790;50.840;4.386;2022-07-29T12:54:11;27.90;46.60
39675;DHT22;27790;50.840;4.386;2022-07-29T12:56:39;28.00;48.40
39675;DHT22;27790;50.840;4.386;2022-07-29T12:59:17;28.10;48.20
39675;DHT22;27790;50.840;4.386;2022-07-29T13:01:44;28.00;46.80
39675;DHT22;27790;50.840;4.386;2022-07-29T13:04:10;28.00;47.30
39675;DHT22;27790;50.840;4.386;2022-07-29T13:06:42;28.00;47.00
39675;DHT22;27790;50.840;4.386;2022-07-29T13:09:16;27.70;46.70
39675;DHT22;27790;50.840;4.386;2022-07-29T13:11:45;27.60;46.80
39675;DHT22;27790;50.840;4.386;2022-07-29T13:14:13;27.60;47.00
39675;DHT22;27790;50.840;4.386;2022-07-29T13:22:15;27.50;47.10
39675;DHT22;27790;50.840;4.386;2022-07-29T13:24:53;27.60;47.40
39675;DHT22;27790;50.840;4.386;2022-07-29T13:27:27;27.70;48.30
39675;DHT22;27790;50.840;4.386;2022-07-29T13:29:55;27.80;47.80
39675;DHT22;27790;50.840;4.386;2022-07-29T13:32:26;28.00;47.40
39675;DHT22;27790;50.840;4.386;2022-07-29T13:34:52;28.10;48.10
39675;DHT22;27790;50.840;4.386;2022-07-29T13:37:18;28.10;46.20
39675;DHT22;27790;50.840;4.386;2022-07-29T13:39:44;28.10;47.70
39675;DHT22;27790;50.840;4.386;2022-07-29T13:42:10;28.20;46.40
39675;DHT22;27790;50.840;4.386;2022-07-29T13:44:39;28.20;47.10
39675;DHT22;27790;50.840;4.386;2022-07-29T13:47:05;28.20;45.90
39675;DHT22;27790;50.840;4.386;2022-07-29T13:49:30;28.10;46.30
39675;DHT22;27790;50.840;4.386;2022-07-29T13:51:56;28.00;46.50
39675;DHT22;27790;50.840;4.386;2022-07-29T13:54:22;28.10;46.50
39675;DHT22;27790;50.840;4.386;2022-07-29T13:56:50;28.00;46.80
39675;DHT22;27790;50.840;4.386;2022-07-29T13:59:15;27.80;46.80
39675;DHT22;27790;50.840;4.386;2022-07-29T14:01:41;27.70;46.50
39675;DHT22;27790;50.840;4.386;2022-07-29T14:04:08;27.60;46.90
39675;DHT22;27790;50.840;4.386;2022-07-29T14:06:34;27.50;46.90
39675;DHT22;27790;50.840;4.386;2022-07-29T14:09:00;27.40;46.90
39675;DHT22;27790;50.840;4.386;2022-07-29T14:11:25;27.40;46.70
39675;DHT22;27790;50.840;4.386;2022-07-29T14:13:51;27.30;46.80
39675;DHT22;27790;50.840;4.386;2022-07-29T14:16:16;27.20;46.70
39675;DHT22;27790;50.840;4.386;2022-07-29T14:18:42;27.20;46.50
39675;DHT22;27790;50.840;4.386;2022-07-29T14:21:08;27.10;45.10
39675;DHT22;27790;50.840;4.386;2022-07-29T14:23:33;27.00;45.20
39675;DHT22;27790;50.840;4.386;2022-07-29T14:25:59;26.90;45.40
39675;DHT22;27790;50.840;4.386;2022-07-29T14:28:26;26.80;45.60
39675;DHT22;27790;50.840;4.386;2022-07-29T14:30:51;26.80;46.50
39675;DHT22;27790;50.840;4.386;2022-07-29T14:33:17;26.80;47.60
39675;DHT22;27790;50.840;4.386;2022-07-29T14:35:43;26.80;47.90
39675;DHT22;27790;50.840;4.386;2022-07-29T14:38:12;26.70;48.40
39675;DHT22;27790;50.840;4.386;2022-07-29T14:40:37;26.60;48.00
39675;DHT22;27790;50.840;4.386;2022-07-29T14:43:03;26.60;49.60
39675;DHT22;27790;50.840;4.386;2022-07-29T14:45:29;26.50;49.40
39675;DHT22;27790;50.840;4.386;2022-07-29T14:47:54;26.70;48.50
39675;DHT22;27790;50.840;4.386;2022-07-29T14:50:20;26.70;47.10
39675;DHT22;27790;50.840;4.386;2022-07-29T14:52:46;26.90;47.40
39675;DHT22;27790;50.840;4.386;2022-07-29T14:55:12;26.80;47.50
39675;DHT22;27790;50.840;4.386;2022-07-29T14:57:37;26.70;47.90
39675;DHT22;27790;50.840;4.386;2022-07-29T15:00:04;26.60;48.30
39675;DHT22;27790;50.840;4.386;2022-07-29T15:02:32;26.60;48.80
39675;DHT22;27790;50.840;4.386;2022-07-29T15:04:57;26.60;48.20
39675;DHT22;27790;50.840;4.386;2022-07-29T15:07:23;26.80;48.30
39675;DHT22;27790;50.840;4.386;2022-07-29T15:09:48;26.80;48.10
39675;DHT22;27790;50.840;4.386;2022-07-29T15:12:14;26.80;47.70
39675;DHT22;27790;50.840;4.386;2022-07-29T15:14:40;26.70;47.90
39675;DHT22;27790;50.840;4.386;2022-07-29T15:17:06;26.60;48.20
39675;DHT22;27790;50.840;4.386;2022-07-29T15:19:32;26.70;48.50
39675;DHT22;27790;50.840;4.386;2022-07-29T15:21:58;26.60;48.90
39675;DHT22;27790;50.840;4.386;2022-07-29T15:24:23;26.60;48.90
39675;DHT22;27790;50.840;4.386;2022-07-29T15:26:49;26.60;49.40
39675;DHT22;27790;50.840;4.386;2022-07-29T15:29:15;26.60;50.00
39675;DHT22;27790;50.840;4.386;2022-07-29T15:31:40;26.60;49.50
39675;DHT22;27790;50.840;4.386;2022-07-29T15:34:06;26.80;49.30
39675;DHT22;27790;50.840;4.386;2022-07-29T15:36:32;26.90;47.40
39675;DHT22;27790;50.840;4.386;2022-07-29T15:38:57;26.80;47.60
39675;DHT22;27790;50.840;4.386;2022-07-29T15:41:23;26.80;47.50
39675;DHT22;27790;50.840;4.386;2022-07-29T15:43:49;26.80;47.30
39675;DHT22;27790;50.840;4.386;2022-07-29T15:46:17;26.80;47.20
39675;DHT22;27790;50.840;4.386;2022-07-29T15:48:53;26.80;47.50
39675;DHT22;27790;50.840;4.386;2022-07-29T15:51:18;26.80;47.20
39675;DHT22;27790;50.840;4.386;2022-07-29T15:53:44;26.90;47.40
39675;DHT22;27790;50.840;4.386;2022-07-29T15:56:10;26.90;47.20
39675;DHT22;27790;50.840;4.386;2022-07-29T15:58:35;26.90;46.00
39675;DHT22;27790;50.840;4.386;2022-07-29T16:01:01;27.00;46.50
39675;DHT22;27790;50.840;4.386;2022-07-29T16:03:29;26.90;47.50
39675;DHT22;27790;50.840;4.386;2022-07-29T16:05:54;27.00;47.40
39675;DHT22;27790;50.840;4.386;2022-07-29T16:08:20;27.00;48.00
39675;DHT22;27790;50.840;4.386;2022-07-29T16:10:45;27.00;47.00
39675;DHT22;27790;50.840;4.386;2022-07-29T16:13:11;26.90;46.70
39675;DHT22;27790;50.840;4.386;2022-07-29T16:15:36;26.90;46.80